sensor_id;sensor_type;location;lat;lon;timestamp;temperature;humidity
69895;DHT22;57172;52.034;5.090;2023-08-07T00:02:25;15.00;90.00
69895;DHT22;57172;52.034;5.090;2023-08-07T00:04:52;15.00;89.90
69895;DHT22;57172;52.034;5.090;2023-08-07T00:07:19;15.00;89.20
69895;DHT22;57172;52.034;5.090;2023-08-07T00:09:46;15.10;89.00
69895;DHT22;57172;52.034;5.090;2023-08-07T00:12:13;15.10;88.70
69895;DHT22;57172;52.034;5.090;2023-08-07T00:14:40;15.10;88.40
69895;DHT22;57172;52.034;5.090;2023-08-07T00:17:07;15.10;88.00
69895;DHT22;57172;52.034;5.090;2023-08-07T00:19:35;15.10;87.80
69895;DHT22;57172;52.034;5.090;2023-08-07T00:22:02;15.10;88.00
69895;DHT22;57172;52.034;5.090;2023-08-07T00:24:29;15.10;87.70
69895;DHT22;57172;52.034;5.090;2023-08-07T00:26:56;15.10;86.90
69895;DHT22;57172;52.034;5.090;2023-08-07T00:29:23;15.10;86.40
69895;DHT22;57172;52.034;5.090;2023-08-07T00:31:50;15.10;86.20
69895;DHT22;57172;52.034;5.090;2023-08-07T00:34:17;15.10;86.30
69895;DHT22;57172;52.034;5.090;2023-08-07T00:36:44;15.10;86.10
69895;DHT22;57172;52.034;5.090;2023-08-07T00:39:11;15.10;86.00
69895;DHT22;57172;52.034;5.090;2023-08-07T00:41:41;15.10;85.10
69895;DHT22;57172;52.034;5.090;2023-08-07T00:44:08;15.10;85.90
69895;DHT22;57172;52.034;5.090;2023-08-07T00:46:35;15.10;86.20
69895;DHT22;57172;52.034;5.090;2023-08-07T00:49:03;15.20;85.00
69895;DHT22;57172;52.034;5.090;2023-08-07T00:51:31;15.10;85.40
69895;DHT22;57172;52.034;5.090;2023-08-07T00:53:58;15.10;85.70
69895;DHT22;57172;52.034;5.090;2023-08-07T00:56:28;15.00;85.80
69895;DHT22;57172;52.034;5.090;2023-08-07T00:58:59;15.00;86.20
69895;DHT22;57172;52.034;5.090;2023-08-07T01:01:27;15.00;86.20
69895;DHT22;57172;52.034;5.090;2023-08-07T01:03:54;15.00;86.70
69895;DHT22;57172;52.034;5.090;2023-08-07T01:06:21;15.00;86.80
69895;DHT22;57172;52.034;5.090;2023-08-07T01:08:48;14.90;86.70
69895;DHT22;57172;52.034;5.090;2023-08-07T01:14:25;14.90;86.50
69895;DHT22;57172;52.034;5.090;2023-08-07T01:17:02;15.00;86.70
69895;DHT22;57172;52.034;5.090;2023-08-07T01:19:34;14.90;86.90
69895;DHT22;57172;52.034;5.090;2023-08-07T01:22:20;14.90;87.00
69895;DHT22;57172;52.034;5.090;2023-08-07T01:24:49;14.90;87.00
69895;DHT22;57172;52.034;5.090;2023-08-07T01:32:31;15.00;86.40
69895;DHT22;57172;52.034;5.090;2023-08-07T01:35:02;15.00;85.90
69895;DHT22;57172;52.034;5.090;2023-08-07T01:37:33;14.90;86.00
69895;DHT22;57172;52.034;5.090;2023-08-07T01:40:02;14.90;86.50
69895;DHT22;57172;52.034;5.090;2023-08-07T01:42:31;14.70;86.90
69895;DHT22;57172;52.034;5.090;2023-08-07T01:44:59;14.60;87.20
69895;DHT22;57172;52.034;5.090;2023-08-07T01:47:26;14.60;87.60
69895;DHT22;57172;52.034;5.090;2023-08-07T01:49:53;14.60;88.00
69895;DHT22;57172;52.034;5.090;2023-08-07T01:52:20;14.60;88.00
69895;DHT22;57172;52.034;5.090;2023-08-07T01:54:47;14.60;88.30
69895;DHT22;57172;52.034;5.090;2023-08-07T01:57:15;14.60;88.40
69895;DHT22;57172;52.034;5.090;2023-08-07T01:59:42;14.60;88.40
69895;DHT22;57172;52.034;5.090;2023-08-07T02:02:10;14.60;88.20
69895;DHT22;57172;52.034;5.090;2023-08-07T02:04:37;14.70;88.40
69895;DHT22;57172;52.034;5.090;2023-08-07T02:07:04;14.70;88.50
69895;DHT22;57172;52.034;5.090;2023-08-07T02:09:31;14.70;88.60
69895;DHT22;57172;52.034;5.090;2023-08-07T02:11:58;14.70;88.30
69895;DHT22;57172;52.034;5.090;2023-08-07T02:14:25;14.70;88.20
69895;DHT22;57172;52.034;5.090;2023-08-07T02:16:52;14.80;88.20
69895;DHT22;57172;52.034;5.090;2023-08-07T02:19:19;14.80;87.80
69895;DHT22;57172;52.034;5.090;2023-08-07T02:21:46;14.80;88.00
69895;DHT22;57172;52.034;5.090;2023-08-07T02:24:13;14.80;88.10
69895;DHT22;57172;52.034;5.090;2023-08-07T02:26:40;14.90;87.90
69895;DHT22;57172;52.034;5.090;2023-08-07T02:29:07;14.90;87.70
69895;DHT22;57172;52.034;5.090;2023-08-07T02:31:36;14.90;87.30
69895;DHT22;57172;52.034;5.090;2023-08-07T02:34:03;14.90;87.30
69895;DHT22;57172;52.034;5.090;2023-08-07T02:36:30;14.90;87.10
69895;DHT22;57172;52.034;5.090;2023-08-07T02:38:57;15.00;87.10
69895;DHT22;57172;52.034;5.090;2023-08-07T02:41:24;15.00;86.70
69895;DHT22;57172;52.034;5.090;2023-08-07T02:43:51;15.00;86.70
69895;DHT22;57172;52.034;5.090;2023-08-07T02:46:18;15.00;86.60
69895;DHT22;57172;52.034;5.090;2023-08-07T02:48:45;15.10;86.50
69895;DHT22;57172;52.034;5.090;2023-08-07T02:51:12;15.10;86.60
69895;DHT22;57172;52.034;5.090;2023-08-07T02:53:39;15.10;86.50
69895;DHT22;57172;52.034;5.090;2023-08-07T02:56:06;15.10;86.30
69895;DHT22;57172;52.034;5.090;2023-08-07T02:58:34;15.20;86.60
69895;DHT22;57172;52.034;5.090;2023-08-07T03:01:05;15.20;86.10
69895;DHT22;57172;52.034;5.090;2023-08-07T03:03:33;15.20;85.70
69895;DHT22;57172;52.034;5.090;2023-08-07T03:06:00;15.10;85.70
69895;DHT22;57172;52.034;5.090;2023-08-07T03:08:27;15.20;85.70
69895;DHT22;57172;52.034;5.090;2023-08-07T03:10:56;15.20;85.70
69895;DHT22;57172;52.034;5.090;2023-08-07T03:13:25;15.20;85.70
69895;DHT22;57172;52.034;5.090;2023-08-07T03:15:59;15.20;85.80
69895;DHT22;57172;52.034;5.090;2023-08-07T03:18:28;15.20;86.00
69895;DHT22;57172;52.034;5.090;2023-08-07T03:20:55;15.20;85.80
69895;DHT22;57172;52.034;5.090;2023-08-07T03:23:23;15.20;86.00
69895;DHT22;57172;52.034;5.090;2023-08-07T03:26:05;15.20;86.00
69895;DHT22;57172;52.034;5.090;2023-08-07T03:28:38;15.20;85.80
69895;DHT22;57172;52.034;5.090;2023-08-07T03:31:06;15.20;85.70
69895;DHT22;57172;52.034;5.090;2023-08-07T03:33:35;15.20;86.10
69895;DHT22;57172;52.034;5.090;2023-08-07T03:36:02;15.20;86.30
69895;DHT22;57172;52.034;5.090;2023-08-07T03:38:29;15.20;86.00
69895;DHT22;57172;52.034;5.090;2023-08-07T03:40:57;15.20;86.10
69895;DHT22;57172;52.034;5.090;2023-08-07T03:43:24;15.20;86.20
69895;DHT22;57172;52.034;5.090;2023-08-07T03:45:55;15.20;86.00
69895;DHT22;57172;52.034;5.090;2023-08-07T03:48:30;15.20;85.90
69895;DHT22;57172;52.034;5.090;2023-08-07T03:51:06;15.10;86.00
69895;DHT22;57172;52.034;5.090;2023-08-07T03:53:45;15.10;85.80
69895;DHT22;57172;52.034;5.090;2023-08-07T03:56:12;15.00;86.20
69895;DHT22;57172;52.034;5.090;2023-08-07T03:58:40;15.00;86.50
69895;DHT22;57172;52.034;5.090;2023-08-07T04:01:07;15.00;86.80
69895;DHT22;57172;52.034;5.090;2023-08-07T04:03:35;15.00;86.60
69895;DHT22;57172;52.034;5.090;2023-08-07T04:06:02;15.00;86.90
69895;DHT22;57172;52.034;5.090;2023-08-07T04:08:32;15.00;87.00
69895;DHT22;57172;52.034;5.090;2023-08-07T04:11:04;15.00;87.00
69895;DHT22;57172;52.034;5.090;2023-08-07T04:13:33;15.00;87.30
69895;DHT22;57172;52.034;5.090;2023-08-07T04:16:01;15.10;87.50
69895;DHT22;57172;52.034;5.090;2023-08-07T04:18:32;15.10;87.70
69895;DHT22;57172;52.034;5.090;2023-08-07T04:21:00;15.10;87.50
69895;DHT22;57172;52.034;5.090;2023-08-07T04:23:27;15.10;87.70
69895;DHT22;57172;52.034;5.090;2023-08-07T04:25:54;15.10;87.80
69895;DHT22;57172;52.034;5.090;2023-08-07T04:28:21;15.10;87.90
69895;DHT22;57172;52.034;5.090;2023-08-07T04:30:49;15.10;87.40
69895;DHT22;57172;52.034;5.090;2023-08-07T04:33:20;15.10;87.40
69895;DHT22;57172;52.034;5.090;2023-08-07T04:35:47;15.10;87.80
69895;DHT22;57172;52.034;5.090;2023-08-07T04:38:15;15.00;88.00
69895;DHT22;57172;52.034;5.090;2023-08-07T04:40:44;14.90;88.10
69895;DHT22;57172;52.034;5.090;2023-08-07T04:43:12;14.90;88.60
69895;DHT22;57172;52.034;5.090;2023-08-07T04:45:39;14.90;88.60
69895;DHT22;57172;52.034;5.090;2023-08-07T04:48:09;14.90;88.90
69895;DHT22;57172;52.034;5.090;2023-08-07T04:50:36;14.90;89.00
69895;DHT22;57172;52.034;5.090;2023-08-07T04:53:04;14.90;88.90
69895;DHT22;57172;52.034;5.090;2023-08-07T04:55:32;15.00;89.00
69895;DHT22;57172;52.034;5.090;2023-08-07T04:57:59;15.00;89.10
69895;DHT22;57172;52.034;5.090;2023-08-07T05:00:27;15.00;89.00
69895;DHT22;57172;52.034;5.090;2023-08-07T05:02:54;15.10;88.80
69895;DHT22;57172;52.034;5.090;2023-08-07T05:05:21;15.10;88.90
69895;DHT22;57172;52.034;5.090;2023-08-07T05:07:49;15.10;88.40
69895;DHT22;57172;52.034;5.090;2023-08-07T05:10:16;15.10;88.60
69895;DHT22;57172;52.034;5.090;2023-08-07T05:12:43;15.20;88.20
69895;DHT22;57172;52.034;5.090;2023-08-07T05:15:10;15.20;88.30
69895;DHT22;57172;52.034;5.090;2023-08-07T05:17:37;15.20;88.30
69895;DHT22;57172;52.034;5.090;2023-08-07T05:20:05;15.30;88.40
69895;DHT22;57172;52.034;5.090;2023-08-07T05:22:32;15.30;88.40
69895;DHT22;57172;52.034;5.090;2023-08-07T05:24:59;15.40;88.30
69895;DHT22;57172;52.034;5.090;2023-08-07T05:27:26;15.40;88.50
69895;DHT22;57172;52.034;5.090;2023-08-07T05:29:53;15.40;88.30
69895;DHT22;57172;52.034;5.090;2023-08-07T05:32:20;15.50;87.80
69895;DHT22;57172;52.034;5.090;2023-08-07T05:34:47;15.50;88.20
69895;DHT22;57172;52.034;5.090;2023-08-07T05:37:14;15.60;87.80
69895;DHT22;57172;52.034;5.090;2023-08-07T05:39:41;15.60;87.70
69895;DHT22;57172;52.034;5.090;2023-08-07T05:42:08;15.70;87.70
69895;DHT22;57172;52.034;5.090;2023-08-07T05:44:36;15.70;87.40
69895;DHT22;57172;52.034;5.090;2023-08-07T05:47:04;15.70;87.60
69895;DHT22;57172;52.034;5.090;2023-08-07T05:49:31;15.70;87.50
69895;DHT22;57172;52.034;5.090;2023-08-07T05:51:58;15.80;87.50
69895;DHT22;57172;52.034;5.090;2023-08-07T05:54:25;15.80;87.60
69895;DHT22;57172;52.034;5.090;2023-08-07T05:56:52;15.80;87.30
69895;DHT22;57172;52.034;5.090;2023-08-07T05:59:19;15.80;87.40
69895;DHT22;57172;52.034;5.090;2023-08-07T06:01:46;15.80;87.30
69895;DHT22;57172;52.034;5.090;2023-08-07T06:04:13;15.90;87.40
69895;DHT22;57172;52.034;5.090;2023-08-07T06:06:40;15.90;87.40
69895;DHT22;57172;52.034;5.090;2023-08-07T06:09:09;15.90;86.60
69895;DHT22;57172;52.034;5.090;2023-08-07T06:11:37;15.90;85.70
69895;DHT22;57172;52.034;5.090;2023-08-07T06:14:04;15.80;86.00
69895;DHT22;57172;52.034;5.090;2023-08-07T06:16:31;15.80;86.30
69895;DHT22;57172;52.034;5.090;2023-08-07T06:18:58;15.80;86.40
69895;DHT22;57172;52.034;5.090;2023-08-07T06:21:25;15.70;86.70
69895;DHT22;57172;52.034;5.090;2023-08-07T06:23:52;15.70;87.10
69895;DHT22;57172;52.034;5.090;2023-08-07T06:26:19;15.60;87.60
69895;DHT22;57172;52.034;5.090;2023-08-07T06:28:46;15.60;88.10
69895;DHT22;57172;52.034;5.090;2023-08-07T06:31:15;15.70;88.40
69895;DHT22;57172;52.034;5.090;2023-08-07T06:33:42;15.70;88.70
69895;DHT22;57172;52.034;5.090;2023-08-07T06:36:09;15.80;89.30
69895;DHT22;57172;52.034;5.090;2023-08-07T06:38:36;15.90;89.70
69895;DHT22;57172;52.034;5.090;2023-08-07T06:41:04;16.10;89.90
69895;DHT22;57172;52.034;5.090;2023-08-07T06:43:32;16.20;89.80
69895;DHT22;57172;52.034;5.090;2023-08-07T06:45:59;16.30;89.90
69895;DHT22;57172;52.034;5.090;2023-08-07T06:48:26;16.50;89.00
69895;DHT22;57172;52.034;5.090;2023-08-07T06:50:52;16.60;88.70
69895;DHT22;57172;52.034;5.090;2023-08-07T06:53:20;16.60;87.30
69895;DHT22;57172;52.034;5.090;2023-08-07T06:55:47;16.70;87.30
69895;DHT22;57172;52.034;5.090;2023-08-07T06:58:14;16.80;87.80
69895;DHT22;57172;52.034;5.090;2023-08-07T07:00:40;17.00;87.60
69895;DHT22;57172;52.034;5.090;2023-08-07T07:03:07;17.10;87.00
69895;DHT22;57172;52.034;5.090;2023-08-07T07:05:37;17.20;86.60
69895;DHT22;57172;52.034;5.090;2023-08-07T07:08:04;17.20;84.70
69895;DHT22;57172;52.034;5.090;2023-08-07T07:10:32;17.20;84.20
69895;DHT22;57172;52.034;5.090;2023-08-07T07:12:59;17.00;83.60
69895;DHT22;57172;52.034;5.090;2023-08-07T07:15:26;16.90;83.30
69895;DHT22;57172;52.034;5.090;2023-08-07T07:17:53;16.80;83.70
69895;DHT22;57172;52.034;5.090;2023-08-07T07:20:20;16.70;84.20
69895;DHT22;57172;52.034;5.090;2023-08-07T07:22:47;16.70;84.20
69895;DHT22;57172;52.034;5.090;2023-08-07T07:25:14;16.80;84.70
69895;DHT22;57172;52.034;5.090;2023-08-07T07:27:41;16.80;85.00
69895;DHT22;57172;52.034;5.090;2023-08-07T07:30:09;16.90;84.70
69895;DHT22;57172;52.034;5.090;2023-08-07T07:32:36;16.90;84.80
69895;DHT22;57172;52.034;5.090;2023-08-07T07:35:03;16.90;84.60
69895;DHT22;57172;52.034;5.090;2023-08-07T07:37:31;16.90;85.10
69895;DHT22;57172;52.034;5.090;2023-08-07T07:39:58;16.90;85.50
69895;DHT22;57172;52.034;5.090;2023-08-07T07:42:25;17.00;85.00
69895;DHT22;57172;52.034;5.090;2023-08-07T07:44:52;17.00;84.70
69895;DHT22;57172;52.034;5.090;2023-08-07T07:47:19;17.10;85.70
69895;DHT22;57172;52.034;5.090;2023-08-07T07:49:47;17.30;86.20
69895;DHT22;57172;52.034;5.090;2023-08-07T07:52:14;17.40;84.30
69895;DHT22;57172;52.034;5.090;2023-08-07T07:54:42;17.50;80.80
69895;DHT22;57172;52.034;5.090;2023-08-07T07:57:09;17.40;79.70
69895;DHT22;57172;52.034;5.090;2023-08-07T07:59:36;17.40;80.20
69895;DHT22;57172;52.034;5.090;2023-08-07T08:02:04;17.50;80.40
69895;DHT22;57172;52.034;5.090;2023-08-07T08:04:31;17.50;79.30
69895;DHT22;57172;52.034;5.090;2023-08-07T08:06:58;17.60;76.90
69895;DHT22;57172;52.034;5.090;2023-08-07T08:09:26;17.60;77.40
69895;DHT22;57172;52.034;5.090;2023-08-07T08:11:53;17.60;77.70
69895;DHT22;57172;52.034;5.090;2023-08-07T08:14:20;17.60;76.90
69895;DHT22;57172;52.034;5.090;2023-08-07T08:16:47;17.60;76.60
69895;DHT22;57172;52.034;5.090;2023-08-07T08:19:14;17.70;77.60
69895;DHT22;57172;52.034;5.090;2023-08-07T08:21:43;17.80;75.50
69895;DHT22;57172;52.034;5.090;2023-08-07T08:24:10;17.90;75.30
69895;DHT22;57172;52.034;5.090;2023-08-07T08:26:37;18.00;76.10
69895;DHT22;57172;52.034;5.090;2023-08-07T08:29:06;18.30;76.80
69895;DHT22;57172;52.034;5.090;2023-08-07T08:31:34;18.70;78.80
69895;DHT22;57172;52.034;5.090;2023-08-07T08:34:02;19.30;80.20
69895;DHT22;57172;52.034;5.090;2023-08-07T08:36:30;19.90;80.40
69895;DHT22;57172;52.034;5.090;2023-08-07T08:38:57;20.50;80.60
69895;DHT22;57172;52.034;5.090;2023-08-07T08:41:24;21.20;79.00
69895;DHT22;57172;52.034;5.090;2023-08-07T08:43:52;21.70;74.90
69895;DHT22;57172;52.034;5.090;2023-08-07T08:46:24;21.90;74.70
69895;DHT22;57172;52.034;5.090;2023-08-07T08:48:57;22.30;74.80
69895;DHT22;57172;52.034;5.090;2023-08-07T08:51:24;22.70;71.30
69895;DHT22;57172;52.034;5.090;2023-08-07T08:53:52;22.90;68.20
69895;DHT22;57172;52.034;5.090;2023-08-07T08:56:21;22.70;68.10
69895;DHT22;57172;52.034;5.090;2023-08-07T08:58:50;22.40;66.50
69895;DHT22;57172;52.034;5.090;2023-08-07T09:01:18;22.10;64.60
69895;DHT22;57172;52.034;5.090;2023-08-07T09:03:45;21.60;64.40
69895;DHT22;57172;52.034;5.090;2023-08-07T09:06:13;21.20;65.20
69895;DHT22;57172;52.034;5.090;2023-08-07T09:08:43;20.90;64.60
69895;DHT22;57172;52.034;5.090;2023-08-07T09:11:11;20.60;64.40
69895;DHT22;57172;52.034;5.090;2023-08-07T09:13:40;20.40;65.30
69895;DHT22;57172;52.034;5.090;2023-08-07T09:16:08;20.10;64.30
69895;DHT22;57172;52.034;5.090;2023-08-07T09:18:35;19.90;65.40
69895;DHT22;57172;52.034;5.090;2023-08-07T09:21:03;19.60;65.70
69895;DHT22;57172;52.034;5.090;2023-08-07T09:23:30;19.40;68.30
69895;DHT22;57172;52.034;5.090;2023-08-07T09:26:01;19.20;68.90
69895;DHT22;57172;52.034;5.090;2023-08-07T09:28:29;19.10;70.30
69895;DHT22;57172;52.034;5.090;2023-08-07T09:30:59;19.00;71.20
69895;DHT22;57172;52.034;5.090;2023-08-07T09:33:29;19.00;72.50
69895;DHT22;57172;52.034;5.090;2023-08-07T09:36:01;19.10;73.10
69895;DHT22;57172;52.034;5.090;2023-08-07T09:38:29;19.20;71.80
69895;DHT22;57172;52.034;5.090;2023-08-07T09:41:00;19.20;72.70
69895;DHT22;57172;52.034;5.090;2023-08-07T09:43:28;19.50;75.10
69895;DHT22;57172;52.034;5.090;2023-08-07T09:46:05;20.00;79.20
69895;DHT22;57172;52.034;5.090;2023-08-07T09:48:43;20.80;77.70
69895;DHT22;57172;52.034;5.090;2023-08-07T09:51:10;21.90;79.10
69895;DHT22;57172;52.034;5.090;2023-08-07T09:53:38;22.60;75.90
69895;DHT22;57172;52.034;5.090;2023-08-07T09:56:06;23.00;72.10
69895;DHT22;57172;52.034;5.090;2023-08-07T09:58:33;23.20;69.40
69895;DHT22;57172;52.034;5.090;2023-08-07T10:01:02;23.20;66.20
69895;DHT22;57172;52.034;5.090;2023-08-07T10:03:30;23.10;61.90
69895;DHT22;57172;52.034;5.090;2023-08-07T10:05:58;22.80;62.70
69895;DHT22;57172;52.034;5.090;2023-08-07T10:08:25;22.50;62.30
69895;DHT22;57172;52.034;5.090;2023-08-07T10:10:52;22.30;61.30
69895;DHT22;57172;52.034;5.090;2023-08-07T10:13:20;22.00;61.40
69895;DHT22;57172;52.034;5.090;2023-08-07T10:16:00;21.80;61.60
69895;DHT22;57172;52.034;5.090;2023-08-07T10:18:27;21.40;62.10
69895;DHT22;57172;52.034;5.090;2023-08-07T10:20:54;21.20;63.70
69895;DHT22;57172;52.034;5.090;2023-08-07T10:23:22;20.90;62.80
69895;DHT22;57172;52.034;5.090;2023-08-07T10:25:49;20.80;65.00
69895;DHT22;57172;52.034;5.090;2023-08-07T10:28:18;20.70;65.20
69895;DHT22;57172;52.034;5.090;2023-08-07T10:30:46;20.60;65.30
69895;DHT22;57172;52.034;5.090;2023-08-07T10:33:15;20.50;65.80
69895;DHT22;57172;52.034;5.090;2023-08-07T10:35:45;20.50;66.80
69895;DHT22;57172;52.034;5.090;2023-08-07T10:38:14;20.40;65.20
69895;DHT22;57172;52.034;5.090;2023-08-07T10:43:29;20.40;67.00
69895;DHT22;57172;52.034;5.090;2023-08-07T10:46:08;20.50;69.20
69895;DHT22;57172;52.034;5.090;2023-08-07T10:51:06;20.70;68.00
69895;DHT22;57172;52.034;5.090;2023-08-07T10:53:36;20.80;68.50
69895;DHT22;57172;52.034;5.090;2023-08-07T10:56:04;20.90;68.80
69895;DHT22;57172;52.034;5.090;2023-08-07T10:58:38;21.20;68.80
69895;DHT22;57172;52.034;5.090;2023-08-07T11:01:39;21.40;70.90
69895;DHT22;57172;52.034;5.090;2023-08-07T11:04:11;22.00;73.70
69895;DHT22;57172;52.034;5.090;2023-08-07T11:06:40;22.70;73.00
69895;DHT22;57172;52.034;5.090;2023-08-07T11:09:09;23.10;70.30
69895;DHT22;57172;52.034;5.090;2023-08-07T11:11:44;23.20;68.80
69895;DHT22;57172;52.034;5.090;2023-08-07T11:14:18;23.20;66.30
69895;DHT22;57172;52.034;5.090;2023-08-07T11:16:47;23.20;64.40
69895;DHT22;57172;52.034;5.090;2023-08-07T11:19:16;23.10;63.50
69895;DHT22;57172;52.034;5.090;2023-08-07T11:21:44;22.90;61.70
69895;DHT22;57172;52.034;5.090;2023-08-07T11:24:16;22.80;65.60
69895;DHT22;57172;52.034;5.090;2023-08-07T11:26:45;22.90;66.20
69895;DHT22;57172;52.034;5.090;2023-08-07T11:29:17;23.30;65.20
69895;DHT22;57172;52.034;5.090;2023-08-07T11:31:45;23.50;64.90
69895;DHT22;57172;52.034;5.090;2023-08-07T11:34:11;24.00;65.90
69895;DHT22;57172;52.034;5.090;2023-08-07T11:36:42;24.20;64.50
69895;DHT22;57172;52.034;5.090;2023-08-07T11:39:10;24.10;60.30
69895;DHT22;57172;52.034;5.090;2023-08-07T11:41:38;24.10;60.00
69895;DHT22;57172;52.034;5.090;2023-08-07T11:44:07;24.30;60.60
69895;DHT22;57172;52.034;5.090;2023-08-07T11:46:35;24.70;62.20
69895;DHT22;57172;52.034;5.090;2023-08-07T11:49:02;25.50;63.30
69895;DHT22;57172;52.034;5.090;2023-08-07T11:51:33;26.50;62.30
69895;DHT22;57172;52.034;5.090;2023-08-07T11:54:01;27.10;61.00
69895;DHT22;57172;52.034;5.090;2023-08-07T11:56:29;27.70;58.40
69895;DHT22;57172;52.034;5.090;2023-08-07T11:58:57;27.70;54.20
69895;DHT22;57172;52.034;5.090;2023-08-07T12:01:26;27.70;54.10
69895;DHT22;57172;52.034;5.090;2023-08-07T12:04:12;27.70;51.80
69895;DHT22;57172;52.034;5.090;2023-08-07T12:06:55;27.30;49.50
69895;DHT22;57172;52.034;5.090;2023-08-07T12:09:25;26.80;50.40
69895;DHT22;57172;52.034;5.090;2023-08-07T12:11:57;26.90;51.00
69895;DHT22;57172;52.034;5.090;2023-08-07T12:14:35;26.80;49.30
69895;DHT22;57172;52.034;5.090;2023-08-07T12:17:02;26.70;50.90
69895;DHT22;57172;52.034;5.090;2023-08-07T12:19:39;27.10;50.90
69895;DHT22;57172;52.034;5.090;2023-08-07T12:22:10;27.40;48.50
69895;DHT22;57172;52.034;5.090;2023-08-07T12:24:37;27.60;47.30
69895;DHT22;57172;52.034;5.090;2023-08-07T12:27:05;27.70;46.70
69895;DHT22;57172;52.034;5.090;2023-08-07T12:29:32;28.00;46.70
69895;DHT22;57172;52.034;5.090;2023-08-07T12:31:59;28.30;44.20
69895;DHT22;57172;52.034;5.090;2023-08-07T12:34:28;27.90;43.10
69895;DHT22;57172;52.034;5.090;2023-08-07T12:36:57;27.50;44.50
69895;DHT22;57172;52.034;5.090;2023-08-07T12:39:25;27.40;45.70
69895;DHT22;57172;52.034;5.090;2023-08-07T12:42:12;27.60;45.50
69895;DHT22;57172;52.034;5.090;2023-08-07T12:44:42;28.20;44.30
69895;DHT22;57172;52.034;5.090;2023-08-07T12:47:10;28.90;42.60
69895;DHT22;57172;52.034;5.090;2023-08-07T12:49:37;29.30;41.50
69895;DHT22;57172;52.034;5.090;2023-08-07T12:52:04;29.20;40.80
69895;DHT22;57172;52.034;5.090;2023-08-07T12:54:31;29.00;41.10
69895;DHT22;57172;52.034;5.090;2023-08-07T12:56:58;28.90;40.20
69895;DHT22;57172;52.034;5.090;2023-08-07T12:59:25;28.50;41.10
69895;DHT22;57172;52.034;5.090;2023-08-07T13:01:52;28.20;41.50
69895;DHT22;57172;52.034;5.090;2023-08-07T13:04:20;28.10;41.60
69895;DHT22;57172;52.034;5.090;2023-08-07T13:06:47;28.20;42.20
69895;DHT22;57172;52.034;5.090;2023-08-07T13:09:16;28.40;42.30
69895;DHT22;57172;52.034;5.090;2023-08-07T13:11:43;28.60;41.80
69895;DHT22;57172;52.034;5.090;2023-08-07T13:14:10;28.60;41.80
69895;DHT22;57172;52.034;5.090;2023-08-07T13:16:37;28.80;40.50
69895;DHT22;57172;52.034;5.090;2023-08-07T13:19:04;28.70;41.40
69895;DHT22;57172;52.034;5.090;2023-08-07T13:21:31;29.10;41.60
69895;DHT22;57172;52.034;5.090;2023-08-07T13:23:58;29.20;39.70
69895;DHT22;57172;52.034;5.090;2023-08-07T13:26:25;29.10;39.30
69895;DHT22;57172;52.034;5.090;2023-08-07T13:28:52;29.20;39.50
69895;DHT22;57172;52.034;5.090;2023-08-07T13:31:19;29.30;39.10
69895;DHT22;57172;52.034;5.090;2023-08-07T13:33:46;29.30;38.30
69895;DHT22;57172;52.034;5.090;2023-08-07T13:36:13;28.90;38.40
69895;DHT22;57172;52.034;5.090;2023-08-07T13:38:40;28.30;39.30
69895;DHT22;57172;52.034;5.090;2023-08-07T13:41:07;28.10;40.40
69895;DHT22;57172;52.034;5.090;2023-08-07T13:43:34;28.30;41.00
69895;DHT22;57172;52.034;5.090;2023-08-07T13:46:01;28.50;40.80
69895;DHT22;57172;52.034;5.090;2023-08-07T13:48:28;28.60;40.60
69895;DHT22;57172;52.034;5.090;2023-08-07T13:50:55;28.80;41.10
69895;DHT22;57172;52.034;5.090;2023-08-07T13:53:22;28.90;40.40
69895;DHT22;57172;52.034;5.090;2023-08-07T13:55:53;29.20;41.10
69895;DHT22;57172;52.034;5.090;2023-08-07T13:58:20;29.30;40.40
69895;DHT22;57172;52.034;5.090;2023-08-07T14:00:47;29.10;40.00
69895;DHT22;57172;52.034;5.090;2023-08-07T14:03:15;28.60;38.20
69895;DHT22;57172;52.034;5.090;2023-08-07T14:05:42;27.80;38.50
69895;DHT22;57172;52.034;5.090;2023-08-07T14:08:09;27.00;39.00
69895;DHT22;57172;52.034;5.090;2023-08-07T14:10:38;26.20;40.00
69895;DHT22;57172;52.034;5.090;2023-08-07T14:13:08;25.60;41.50
69895;DHT22;57172;52.034;5.090;2023-08-07T14:15:36;25.10;42.80
69895;DHT22;57172;52.034;5.090;2023-08-07T14:18:03;24.80;43.90
69895;DHT22;57172;52.034;5.090;2023-08-07T14:20:30;24.80;45.20
69895;DHT22;57172;52.034;5.090;2023-08-07T14:22:57;25.30;45.40
69895;DHT22;57172;52.034;5.090;2023-08-07T14:25:44;25.40;43.10
69895;DHT22;57172;52.034;5.090;2023-08-07T14:28:11;25.00;43.40
69895;DHT22;57172;52.034;5.090;2023-08-07T14:30:38;24.70;44.40
69895;DHT22;57172;52.034;5.090;2023-08-07T14:33:05;24.70;44.70
69895;DHT22;57172;52.034;5.090;2023-08-07T14:35:32;24.40;44.90
69895;DHT22;57172;52.034;5.090;2023-08-07T14:37:59;24.20;45.60
69895;DHT22;57172;52.034;5.090;2023-08-07T14:40:27;24.20;47.50
69895;DHT22;57172;52.034;5.090;2023-08-07T14:42:55;24.70;47.70
69895;DHT22;57172;52.034;5.090;2023-08-07T14:45:22;25.00;46.70
69895;DHT22;57172;52.034;5.090;2023-08-07T14:47:50;24.90;45.60
69895;DHT22;57172;52.034;5.090;2023-08-07T14:50:17;24.60;46.80
69895;DHT22;57172;52.034;5.090;2023-08-07T14:52:44;24.40;46.30
69895;DHT22;57172;52.034;5.090;2023-08-07T14:55:11;24.00;46.90
69895;DHT22;57172;52.034;5.090;2023-08-07T14:57:38;23.50;47.80
69895;DHT22;57172;52.034;5.090;2023-08-07T15:00:06;23.10;48.60
69895;DHT22;57172;52.034;5.090;2023-08-07T15:02:34;22.60;49.80
69895;DHT22;57172;52.034;5.090;2023-08-07T15:05:01;22.00;51.00
69895;DHT22;57172;52.034;5.090;2023-08-07T15:07:28;21.60;52.70
69895;DHT22;57172;52.034;5.090;2023-08-07T15:09:55;21.10;53.00
69895;DHT22;57172;52.034;5.090;2023-08-07T15:12:22;20.70;54.20
69895;DHT22;57172;52.034;5.090;2023-08-07T15:14:49;20.30;55.60
69895;DHT22;57172;52.034;5.090;2023-08-07T15:17:16;19.70;56.80
69895;DHT22;57172;52.034;5.090;2023-08-07T15:19:44;19.10;58.80
69895;DHT22;57172;52.034;5.090;2023-08-07T15:22:11;18.70;60.80
69895;DHT22;57172;52.034;5.090;2023-08-07T15:24:38;18.40;61.20
69895;DHT22;57172;52.034;5.090;2023-08-07T15:27:06;18.20;62.50
69895;DHT22;57172;52.034;5.090;2023-08-07T15:29:33;18.10;63.30
69895;DHT22;57172;52.034;5.090;2023-08-07T15:32:00;18.00;63.60
69895;DHT22;57172;52.034;5.090;2023-08-07T15:34:27;18.00;64.20
69895;DHT22;57172;52.034;5.090;2023-08-07T15:36:54;18.20;65.20
69895;DHT22;57172;52.034;5.090;2023-08-07T15:39:22;18.50;65.10
69895;DHT22;57172;52.034;5.090;2023-08-07T15:41:49;18.80;64.90
69895;DHT22;57172;52.034;5.090;2023-08-07T15:44:16;19.10;64.70
69895;DHT22;57172;52.034;5.090;2023-08-07T15:46:43;19.40;63.70
69895;DHT22;57172;52.034;5.090;2023-08-07T15:49:10;19.60;63.40
69895;DHT22;57172;52.034;5.090;2023-08-07T15:51:37;19.80;62.40